Burwell, NE

10:55 PM CDT on August 22, 2014 (GMT -0500)
Albion Municipal | Change Station
CLOSE
Current Station
Airport
Location: Albion,
Elevation: 1804 ft
Nearby Weather Stations

Elev 1804 ft 41.73 °N, 98.06 °W | Updated 20 minutes ago

Drizzle
Drizzle
74 °F
Feels Like 74 °F
N
7
Wind Variable Wind from North

Today
High -- | Low -- °F
--% Chance of Precip.
Yesterday
High -- | Low -- °F
Precip. -- in
6:52 AM 8:25 PM
Waning Crescent, 5% visible
Pressure 29.94 in
Visibility 10.0 miles
Clouds Scattered Clouds 8000 ft
Scattered Clouds 11000 ft
Dew Point 70 °F
Humidity 87%
Rainfall 0.09 in
Snow Depth Not available.
UV 0 out of 12
Pollen 10.10 out of 12
Air Quality Not available.
Flu Activity Not available.
METAR KBVN 230335Z AUTO 01006KT 10SM DZ SCT080 SCT110 23/21 A2994 RMK AO2 LTG DSNT S AND SW P0001 T02330210

More Conditions Fewer Conditions

Pressure 29.94 in
Visibility 10.0 miles
Clouds Scattered Clouds 8000 ft
Scattered Clouds 11000 ft
Dew Point 70 °F
Humidity 87%
Rainfall 0.09 in
Snow Depth Not available.
UV 0 out of 12
Pollen 10.10 out of 12
Air Quality Not available.
Flu Activity Not available.
METAR KBVN 230335Z AUTO 01006KT 10SM DZ SCT080 SCT110 23/21 A2994 RMK AO2 LTG DSNT S AND SW P0001 T02330210

More Conditions Fewer Conditions

Nowcast | as of 10:49 PM CDT on August 22, 2014

At 1046 PM CDT Doppler radar indicated showers and thunderstorms from 5 miles southeast of Antioch to Mason City...moving north at 25 mph. Locations that may be affected include... Antioch...Lakeside...Ellsworth...Westerville...Merna...Weissert... Hyannis...Interstate 80 and the sandhills. Heavy rain...torrential downpours and frequent lightning may accompany these storms. 1 to 2 inches of rain may fall from strongest storms which will move through the sandhills tonight.

×

10-Day Weather Forecast

Almanac

Astronomy

Aug. 22, 2014 Rise Set
Actual Time 6:52 AM CDT 8:25 PM CDT
Civil Twilight 6:22 AM CDT 8:55 PM CDT
Nautical Twilight 5:47 AM CDT 9:30 PM CDT
Astronomical Twilight 5:09 AM CDT 10:08 PM CDT
Moon 4:15 AM CDT (8/22) 6:36 PM CDT (8/22)
Length of Visible Light 14h 32m
Length of Day
13h 33m
Tomorrow will be 2m 35s shorter.
Waning Crescent, 5% of the Moon is Illuminated
Today
Waning Crescent
Aug 25
New
Sep 2
First Quarter
Sep 8
Full
Sep 15
Last Quarter

Today's Extremes

State Highs State Lows

Community

WunderPhotos

Upload Photos

1,746,352 photos uploaded!

WunderBlogs® & News

Nearby

Snow Depth

Station Depth Elevation
No new snow has been reported.

Earthquake Activity

City Distance Mag. Time & Date
No recent earthquake activity has been reported nearby.
Minimum magnitude displayed is 2.5.

Coastal Water Temperatures

Place Temperature
No Stations Reporting

Nearby Weather Stations